sensor_id;sensor_type;location;lat;lon;timestamp;pressure;altitude;pressure_sealevel;temperature;humidity
29433;BME280;16405;53.964;13.448;2022-11-18T00:01:21;100257.34;;;-0.54;86.51
29433;BME280;16405;53.964;13.448;2022-11-18T00:03:53;100264.25;;;-0.53;86.75
29433;BME280;16405;53.964;13.448;2022-11-18T00:06:22;100274.50;;;-0.43;86.67
29433;BME280;16405;53.964;13.448;2022-11-18T00:08:53;100260.72;;;-0.46;86.41
29433;BME280;16405;53.964;13.448;2022-11-18T00:11:24;100272.91;;;-0.57;86.36
29433;BME280;16405;53.964;13.448;2022-11-18T00:14:19;100272.09;;;-0.66;86.68
29433;BME280;16405;53.964;13.448;2022-11-18T00:19:29;100276.44;;;-0.65;86.69
29433;BME280;16405;53.964;13.448;2022-11-18T00:22:02;100273.00;;;-0.70;86.74
29433;BME280;16405;53.964;13.448;2022-11-18T00:24:29;100272.09;;;-0.63;86.24
29433;BME280;16405;53.964;13.448;2022-11-18T00:26:55;100279.00;;;-0.65;86.32
29433;BME280;16405;53.964;13.448;2022-11-18T00:29:22;100268.72;;;-0.71;86.77
29433;BME280;16405;53.964;13.448;2022-11-18T00:31:56;100269.63;;;-0.79;86.49
29433;BME280;16405;53.964;13.448;2022-11-18T00:34:24;100277.38;;;-0.76;86.22
29433;BME280;16405;53.964;13.448;2022-11-18T00:36:58;100269.72;;;-0.92;86.51
29433;BME280;16405;53.964;13.448;2022-11-18T00:39:23;100273.13;;;-0.85;86.94
29433;BME280;16405;53.964;13.448;2022-11-18T00:41:50;100273.97;;;-0.85;86.87
29433;BME280;16405;53.964;13.448;2022-11-18T00:44:37;100274.91;;;-0.95;87.14
29433;BME280;16405;53.964;13.448;2022-11-18T00:47:06;100280.16;;;-1.06;87.92
29433;BME280;16405;53.964;13.448;2022-11-18T00:49:31;100286.16;;;-1.02;87.41
29433;BME280;16405;53.964;13.448;2022-11-18T00:51:57;100286.97;;;-0.92;87.85
29433;BME280;16405;53.964;13.448;2022-11-18T00:54:23;100282.66;;;-0.93;88.00
29433;BME280;16405;53.964;13.448;2022-11-18T00:56:49;100279.34;;;-1.17;88.69
29433;BME280;16405;53.964;13.448;2022-11-18T00:59:17;100274.22;;;-1.21;89.10
29433;BME280;16405;53.964;13.448;2022-11-18T01:01:45;100282.00;;;-1.29;89.54
29433;BME280;16405;53.964;13.448;2022-11-18T01:04:11;100273.38;;;-1.27;89.84
29433;BME280;16405;53.964;13.448;2022-11-18T01:06:37;100271.78;;;-1.51;89.68
29433;BME280;16405;53.964;13.448;2022-11-18T01:09:03;100270.09;;;-1.55;90.32
29433;BME280;16405;53.964;13.448;2022-11-18T01:11:28;100286.50;;;-1.77;90.89
29433;BME280;16405;53.964;13.448;2022-11-18T01:14:15;100285.69;;;-1.92;91.55
29433;BME280;16405;53.964;13.448;2022-11-18T01:16:41;100275.34;;;-1.90;92.51
29433;BME280;16405;53.964;13.448;2022-11-18T01:19:07;100276.25;;;-1.97;92.73
29433;BME280;16405;53.964;13.448;2022-11-18T01:21:33;100283.09;;;-1.87;92.84
29433;BME280;16405;53.964;13.448;2022-11-18T01:23:58;100288.25;;;-1.87;92.62
29433;BME280;16405;53.964;13.448;2022-11-18T01:26:24;100284.00;;;-1.96;92.36
29433;BME280;16405;53.964;13.448;2022-11-18T01:28:57;100286.59;;;-2.00;92.40
29433;BME280;16405;53.964;13.448;2022-11-18T01:31:24;100278.88;;;-2.16;92.63
29433;BME280;16405;53.964;13.448;2022-11-18T01:33:50;100282.34;;;-2.24;93.57
29433;BME280;16405;53.964;13.448;2022-11-18T01:36:25;100281.47;;;-2.28;93.36
29433;BME280;16405;53.964;13.448;2022-11-18T01:38:52;100290.94;;;-2.47;94.61
29433;BME280;16405;53.964;13.448;2022-11-18T01:41:19;100284.91;;;-2.49;95.38
29433;BME280;16405;53.964;13.448;2022-11-18T01:43:57;100284.94;;;-2.57;96.14
29433;BME280;16405;53.964;13.448;2022-11-18T01:46:27;100287.50;;;-2.52;95.71
29433;BME280;16405;53.964;13.448;2022-11-18T01:49:13;100289.22;;;-2.59;96.38
29433;BME280;16405;53.964;13.448;2022-11-18T01:51:54;100283.22;;;-2.67;96.49
29433;BME280;16405;53.964;13.448;2022-11-18T01:54:38;100290.06;;;-2.66;97.00
29433;BME280;16405;53.964;13.448;2022-11-18T01:57:17;100278.03;;;-2.70;96.57
29433;BME280;16405;53.964;13.448;2022-11-18T01:59:59;100287.50;;;-2.67;96.93
29433;BME280;16405;53.964;13.448;2022-11-18T02:02:33;100285.75;;;-2.81;98.07
29433;BME280;16405;53.964;13.448;2022-11-18T02:05:03;100279.78;;;-2.83;98.13
29433;BME280;16405;53.964;13.448;2022-11-18T02:07:39;100279.75;;;-2.89;99.08
29433;BME280;16405;53.964;13.448;2022-11-18T02:10:09;100280.63;;;-2.78;99.35
29433;BME280;16405;53.964;13.448;2022-11-18T02:12:41;100276.31;;;-2.91;99.67
29433;BME280;16405;53.964;13.448;2022-11-18T02:15:08;100279.75;;;-2.86;100.00
29433;BME280;16405;53.964;13.448;2022-11-18T02:17:56;100284.06;;;-2.77;100.00
29433;BME280;16405;53.964;13.448;2022-11-18T02:20:36;100278.03;;;-2.84;99.85
29433;BME280;16405;53.964;13.448;2022-11-18T02:26:16;100275.47;;;-2.87;99.30
29433;BME280;16405;53.964;13.448;2022-11-18T02:29:13;100280.59;;;-2.90;99.82
29433;BME280;16405;53.964;13.448;2022-11-18T02:32:05;100279.75;;;-2.92;99.96
29433;BME280;16405;53.964;13.448;2022-11-18T02:34:53;100287.47;;;-2.97;100.00
29433;BME280;16405;53.964;13.448;2022-11-18T02:37:38;100289.19;;;-2.96;99.88
29433;BME280;16405;53.964;13.448;2022-11-18T02:43:08;100289.22;;;-2.91;100.00
29433;BME280;16405;53.964;13.448;2022-11-18T02:45:36;100296.06;;;-2.90;100.00
29433;BME280;16405;53.964;13.448;2022-11-18T02:48:13;100303.78;;;-2.85;100.00
29433;BME280;16405;53.964;13.448;2022-11-18T02:50:52;100289.19;;;-2.94;100.00
29433;BME280;16405;53.964;13.448;2022-11-18T02:53:20;100290.91;;;-2.90;100.00
29433;BME280;16405;53.964;13.448;2022-11-18T02:55:50;100298.63;;;-2.85;100.00
29433;BME280;16405;53.964;13.448;2022-11-18T02:58:20;100286.63;;;-2.96;100.00
29433;BME280;16405;53.964;13.448;2022-11-18T03:00:59;100292.66;;;-2.94;100.00
29433;BME280;16405;53.964;13.448;2022-11-18T03:03:30;100289.19;;;-2.88;100.00
29433;BME280;16405;53.964;13.448;2022-11-18T03:06:40;100276.31;;;-2.82;100.00
29433;BME280;16405;53.964;13.448;2022-11-18T03:12:18;100269.47;;;-2.78;100.00
29433;BME280;16405;53.964;13.448;2022-11-18T03:20:27;100276.34;;;-2.70;100.00
29433;BME280;16405;53.964;13.448;2022-11-18T03:23:20;100274.63;;;-2.67;100.00
29433;BME280;16405;53.964;13.448;2022-11-18T03:31:37;100282.31;;;-2.61;100.00
29433;BME280;16405;53.964;13.448;2022-11-18T03:34:30;100284.91;;;-2.60;100.00
29433;BME280;16405;53.964;13.448;2022-11-18T03:37:01;100287.50;;;-2.55;100.00
29433;BME280;16405;53.964;13.448;2022-11-18T03:39:31;100282.34;;;-2.57;100.00
29433;BME280;16405;53.964;13.448;2022-11-18T03:42:08;100291.81;;;-2.48;100.00
29433;BME280;16405;53.964;13.448;2022-11-18T03:44:42;100288.38;;;-2.44;100.00
29433;BME280;16405;53.964;13.448;2022-11-18T03:47:35;100296.94;;;-2.36;100.00
29433;BME280;16405;53.964;13.448;2022-11-18T03:50:26;100294.34;;;-2.30;100.00
29433;BME280;16405;53.964;13.448;2022-11-18T03:52:58;100290.06;;;-2.28;100.00
29433;BME280;16405;53.964;13.448;2022-11-18T03:55:31;100302.94;;;-2.28;100.00
29433;BME280;16405;53.964;13.448;2022-11-18T04:01:34;100321.00;;;-2.14;99.12
29433;BME280;16405;53.964;13.448;2022-11-18T04:04:03;100314.97;;;-2.11;99.08
29433;BME280;16405;53.964;13.448;2022-11-18T04:07:38;100323.56;;;-2.08;98.09
29433;BME280;16405;53.964;13.448;2022-11-18T04:09:46;100335.63;;;-2.05;97.98
29433;BME280;16405;53.964;13.448;2022-11-18T04:12:18;100323.56;;;-2.03;97.42
29433;BME280;16405;53.964;13.448;2022-11-18T04:14:46;100328.72;;;-2.00;96.73
29433;BME280;16405;53.964;13.448;2022-11-18T04:17:21;100338.19;;;-1.96;95.69
29433;BME280;16405;53.964;13.448;2022-11-18T04:19:49;100339.88;;;-1.93;95.64
29433;BME280;16405;53.964;13.448;2022-11-18T04:22:18;100339.03;;;-1.97;94.96
29433;BME280;16405;53.964;13.448;2022-11-18T04:24:45;100339.03;;;-1.97;94.16
29433;BME280;16405;53.964;13.448;2022-11-18T04:27:11;100341.59;;;-1.91;93.90
29433;BME280;16405;53.964;13.448;2022-11-18T04:29:36;100339.88;;;-1.93;93.75
29433;BME280;16405;53.964;13.448;2022-11-18T04:32:05;100344.19;;;-1.88;92.92
29433;BME280;16405;53.964;13.448;2022-11-18T04:34:34;100332.13;;;-1.95;92.66
29433;BME280;16405;53.964;13.448;2022-11-18T04:37:00;100335.59;;;-1.94;92.71
29433;BME280;16405;53.964;13.448;2022-11-18T04:39:25;100339.03;;;-1.89;92.63
29433;BME280;16405;53.964;13.448;2022-11-18T04:41:51;100347.63;;;-1.98;92.22
29433;BME280;16405;53.964;13.448;2022-11-18T04:44:31;100343.34;;;-1.96;92.21
29433;BME280;16405;53.964;13.448;2022-11-18T04:47:03;100343.34;;;-2.03;91.93
29433;BME280;16405;53.964;13.448;2022-11-18T04:49:29;100347.66;;;-2.04;92.06
29433;BME280;16405;53.964;13.448;2022-11-18T04:51:55;100345.91;;;-2.10;92.16
29433;BME280;16405;53.964;13.448;2022-11-18T04:54:23;100350.25;;;-2.13;92.19
29433;BME280;16405;53.964;13.448;2022-11-18T04:56:49;100358.81;;;-2.14;91.90
29433;BME280;16405;53.964;13.448;2022-11-18T04:59:21;100348.53;;;-2.22;92.09
29433;BME280;16405;53.964;13.448;2022-11-18T05:01:48;100357.09;;;-2.18;92.01
29433;BME280;16405;53.964;13.448;2022-11-18T05:04:18;100354.53;;;-2.21;92.01
29433;BME280;16405;53.964;13.448;2022-11-18T05:06:45;100353.66;;;-2.31;92.30
29433;BME280;16405;53.964;13.448;2022-11-18T05:09:11;100363.97;;;-2.36;92.02
29433;BME280;16405;53.964;13.448;2022-11-18T05:11:37;100363.13;;;-2.38;92.63
29433;BME280;16405;53.964;13.448;2022-11-18T05:14:25;100363.16;;;-2.39;92.86
29433;BME280;16405;53.964;13.448;2022-11-18T05:16:52;100368.31;;;-2.39;93.00
29433;BME280;16405;53.964;13.448;2022-11-18T05:19:18;100378.59;;;-2.38;93.01
29433;BME280;16405;53.964;13.448;2022-11-18T05:21:44;100370.00;;;-2.37;93.35
29433;BME280;16405;53.964;13.448;2022-11-18T05:24:10;100382.91;;;-2.31;93.53
29433;BME280;16405;53.964;13.448;2022-11-18T05:26:36;100380.31;;;-2.28;93.40
29433;BME280;16405;53.964;13.448;2022-11-18T05:29:02;100368.28;;;-2.25;93.61
29433;BME280;16405;53.964;13.448;2022-11-18T05:31:28;100383.78;;;-2.19;93.69
29433;BME280;16405;53.964;13.448;2022-11-18T05:33:54;100378.59;;;-2.15;93.28
29433;BME280;16405;53.964;13.448;2022-11-18T05:36:20;100388.06;;;-2.17;93.13
29433;BME280;16405;53.964;13.448;2022-11-18T05:38:47;100382.06;;;-2.17;92.71
29433;BME280;16405;53.964;13.448;2022-11-18T05:41:13;100386.38;;;-2.18;92.77
29433;BME280;16405;53.964;13.448;2022-11-18T05:44:00;100385.47;;;-2.17;92.43
29433;BME280;16405;53.964;13.448;2022-11-18T05:46:27;100384.63;;;-2.19;92.61
29433;BME280;16405;53.964;13.448;2022-11-18T05:48:55;100392.34;;;-2.20;92.11
29433;BME280;16405;53.964;13.448;2022-11-18T05:51:22;100396.66;;;-2.24;91.98
29433;BME280;16405;53.964;13.448;2022-11-18T05:53:50;100396.69;;;-2.18;91.86
29433;BME280;16405;53.964;13.448;2022-11-18T05:58:51;100410.41;;;-2.08;91.37
29433;BME280;16405;53.964;13.448;2022-11-18T06:01:23;100425.03;;;-2.04;90.63
29433;BME280;16405;53.964;13.448;2022-11-18T06:03:53;100425.91;;;-2.02;90.53
29433;BME280;16405;53.964;13.448;2022-11-18T06:06:20;100418.16;;;-1.99;89.75
29433;BME280;16405;53.964;13.448;2022-11-18T06:09:02;100428.50;;;-2.02;89.21
29433;BME280;16405;53.964;13.448;2022-11-18T06:11:36;100414.75;;;-1.96;89.00
29433;BME280;16405;53.964;13.448;2022-11-18T06:14:16;100431.09;;;-1.94;89.56
29433;BME280;16405;53.964;13.448;2022-11-18T06:16:49;100427.63;;;-1.96;88.91
29433;BME280;16405;53.964;13.448;2022-11-18T06:19:16;100414.72;;;-1.92;88.60
29433;BME280;16405;53.964;13.448;2022-11-18T06:21:43;100422.47;;;-1.98;88.57
29433;BME280;16405;53.964;13.448;2022-11-18T06:24:10;100416.47;;;-2.03;88.46
29433;BME280;16405;53.964;13.448;2022-11-18T06:26:37;100425.06;;;-1.96;88.25
29433;BME280;16405;53.964;13.448;2022-11-18T06:29:04;100425.88;;;-1.99;88.46
29433;BME280;16405;53.964;13.448;2022-11-18T06:31:31;100432.78;;;-2.01;88.16
29433;BME280;16405;53.964;13.448;2022-11-18T06:33:57;100434.50;;;-1.95;88.30
29433;BME280;16405;53.964;13.448;2022-11-18T06:36:23;100446.53;;;-1.99;87.92
29433;BME280;16405;53.964;13.448;2022-11-18T06:38:49;100450.84;;;-1.95;87.51
29433;BME280;16405;53.964;13.448;2022-11-18T06:41:14;100458.59;;;-1.93;87.37
29433;BME280;16405;53.964;13.448;2022-11-18T06:43:40;100455.13;;;-1.97;87.10
29433;BME280;16405;53.964;13.448;2022-11-18T06:46:13;100459.44;;;-1.93;87.14
29433;BME280;16405;53.964;13.448;2022-11-18T06:49:00;100464.63;;;-1.90;86.61
29433;BME280;16405;53.964;13.448;2022-11-18T06:51:27;100462.91;;;-1.84;86.17
29433;BME280;16405;53.964;13.448;2022-11-18T06:53:53;100469.78;;;-1.90;85.99
29433;BME280;16405;53.964;13.448;2022-11-18T06:56:23;100474.97;;;-1.83;85.78
29433;BME280;16405;53.964;13.448;2022-11-18T06:58:55;100482.69;;;-1.79;85.75
29433;BME280;16405;53.964;13.448;2022-11-18T07:01:25;100483.56;;;-1.77;85.25
29433;BME280;16405;53.964;13.448;2022-11-18T07:03:51;100485.25;;;-1.76;85.37
29433;BME280;16405;53.964;13.448;2022-11-18T07:06:21;100490.41;;;-1.87;84.83
29433;BME280;16405;53.964;13.448;2022-11-18T07:08:48;100485.25;;;-1.82;84.98
29433;BME280;16405;53.964;13.448;2022-11-18T07:11:18;100487.84;;;-1.76;84.68
29433;BME280;16405;53.964;13.448;2022-11-18T07:13:45;100493.88;;;-1.78;84.30
29433;BME280;16405;53.964;13.448;2022-11-18T07:16:15;100491.28;;;-1.65;83.82
29433;BME280;16405;53.964;13.448;2022-11-18T07:18:43;100490.41;;;-1.65;83.38
29433;BME280;16405;53.964;13.448;2022-11-18T07:21:14;100500.75;;;-1.54;83.14
29433;BME280;16405;53.964;13.448;2022-11-18T07:23:40;100504.19;;;-1.52;82.65
29433;BME280;16405;53.964;13.448;2022-11-18T07:26:07;100508.47;;;-1.50;82.22
29433;BME280;16405;53.964;13.448;2022-11-18T07:28:33;100505.91;;;-1.43;81.90
29433;BME280;16405;53.964;13.448;2022-11-18T07:31:05;100519.66;;;-1.32;81.83
29433;BME280;16405;53.964;13.448;2022-11-18T07:33:32;100512.78;;;-1.33;81.49
29433;BME280;16405;53.964;13.448;2022-11-18T07:36:15;100516.22;;;-1.20;80.50
29433;BME280;16405;53.964;13.448;2022-11-18T07:38:42;100521.38;;;-1.14;81.11
29433;BME280;16405;53.964;13.448;2022-11-18T07:41:16;100529.09;;;-1.13;80.08
29433;BME280;16405;53.964;13.448;2022-11-18T07:43:43;100529.09;;;-1.07;80.39
29433;BME280;16405;53.964;13.448;2022-11-18T07:48:45;100528.22;;;-1.02;79.72
29433;BME280;16405;53.964;13.448;2022-11-18T07:51:12;100537.69;;;-0.92;79.53
29433;BME280;16405;53.964;13.448;2022-11-18T07:53:41;100547.16;;;-0.96;79.10
29433;BME280;16405;53.964;13.448;2022-11-18T07:56:12;100545.41;;;-0.91;78.78
29433;BME280;16405;53.964;13.448;2022-11-18T07:58:38;100543.69;;;-0.84;78.66
29433;BME280;16405;53.964;13.448;2022-11-18T08:03:36;100552.31;;;-0.91;78.27
29433;BME280;16405;53.964;13.448;2022-11-18T08:06:03;100550.56;;;-0.81;78.35
29433;BME280;16405;53.964;13.448;2022-11-18T08:08:29;100554.00;;;-0.75;78.11
29433;BME280;16405;53.964;13.448;2022-11-18T08:11:07;100549.69;;;-0.67;77.97
29433;BME280;16405;53.964;13.448;2022-11-18T08:13:34;100546.22;;;-0.69;78.43
29433;BME280;16405;53.964;13.448;2022-11-18T08:16:01;100549.66;;;-0.62;77.80
29433;BME280;16405;53.964;13.448;2022-11-18T08:18:31;100547.94;;;-0.66;77.81
29433;BME280;16405;53.964;13.448;2022-11-18T08:21:03;100547.91;;;-0.62;77.80
29433;BME280;16405;53.964;13.448;2022-11-18T08:23:30;100545.34;;;-0.62;77.67
29433;BME280;16405;53.964;13.448;2022-11-18T08:26:04;100550.50;;;-0.54;77.54
29433;BME280;16405;53.964;13.448;2022-11-18T08:28:30;100554.75;;;-0.48;77.69
29433;BME280;16405;53.964;13.448;2022-11-18T08:30:56;100547.00;;;-0.48;76.92
29433;BME280;16405;53.964;13.448;2022-11-18T08:33:22;100561.66;;;-0.43;76.75
29433;BME280;16405;53.964;13.448;2022-11-18T08:35:55;100565.06;;;-0.34;76.48
29433;BME280;16405;53.964;13.448;2022-11-18T08:38:21;100563.31;;;-0.29;76.08
29433;BME280;16405;53.964;13.448;2022-11-18T08:40:47;100562.44;;;-0.24;75.90
29433;BME280;16405;53.964;13.448;2022-11-18T08:43:12;100563.28;;;-0.22;75.33
29433;BME280;16405;53.964;13.448;2022-11-18T08:45:39;100565.00;;;-0.19;75.07
29433;BME280;16405;53.964;13.448;2022-11-18T08:48:05;100570.13;;;-0.14;75.23
29433;BME280;16405;53.964;13.448;2022-11-18T08:50:31;100575.28;;;-0.11;75.29
29433;BME280;16405;53.964;13.448;2022-11-18T08:52:57;100565.81;;;-0.12;75.11
29433;BME280;16405;53.964;13.448;2022-11-18T08:55:23;100572.66;;;-0.02;75.01
29433;BME280;16405;53.964;13.448;2022-11-18T08:57:49;100568.34;;;-0.05;74.49
29433;BME280;16405;53.964;13.448;2022-11-18T09:00:15;100568.31;;;0.05;74.88
29433;BME280;16405;53.964;13.448;2022-11-18T09:02:41;100563.91;;;0.14;74.69
29433;BME280;16405;53.964;13.448;2022-11-18T09:05:07;100568.25;;;0.11;74.59
29433;BME280;16405;53.964;13.448;2022-11-18T09:07:36;100575.06;;;0.27;74.55
29433;BME280;16405;53.964;13.448;2022-11-18T09:10:02;100577.63;;;0.32;74.68
29433;BME280;16405;53.964;13.448;2022-11-18T09:12:28;100578.44;;;0.40;74.51
29433;BME280;16405;53.964;13.448;2022-11-18T09:14:54;100584.41;;;0.48;74.16
29433;BME280;16405;53.964;13.448;2022-11-18T09:17:20;100588.66;;;0.55;74.37
29433;BME280;16405;53.964;13.448;2022-11-18T09:19:45;100589.53;;;0.60;74.13
29433;BME280;16405;53.964;13.448;2022-11-18T09:22:11;100586.88;;;0.65;73.91
29433;BME280;16405;53.964;13.448;2022-11-18T09:24:37;100587.66;;;0.78;74.21
29433;BME280;16405;53.964;13.448;2022-11-18T09:27:11;100596.34;;;0.69;73.28
29433;BME280;16405;53.964;13.448;2022-11-18T09:29:37;100598.78;;;0.89;73.68
29433;BME280;16405;53.964;13.448;2022-11-18T09:32:05;100592.69;;;0.93;73.61
29433;BME280;16405;53.964;13.448;2022-11-18T09:34:36;100608.09;;;1.06;73.40
29433;BME280;16405;53.964;13.448;2022-11-18T09:37:08;100602.88;;;1.13;73.24
29433;BME280;16405;53.964;13.448;2022-11-18T09:39:35;100608.00;;;1.21;73.37
29433;BME280;16405;53.964;13.448;2022-11-18T09:45:24;100621.69;;;1.32;72.42
29433;BME280;16405;53.964;13.448;2022-11-18T09:47:57;100613.75;;;1.49;72.39
29433;BME280;16405;53.964;13.448;2022-11-18T09:50:28;100617.06;;;1.59;72.42
29433;BME280;16405;53.964;13.448;2022-11-18T09:53:19;100612.59;;;1.72;71.86
29433;BME280;16405;53.964;13.448;2022-11-18T09:55:51;100616.25;;;1.57;70.29
29433;BME280;16405;53.964;13.448;2022-11-18T09:58:31;100610.88;;;1.72;70.35
29433;BME280;16405;53.964;13.448;2022-11-18T10:01:02;100609.81;;;1.89;69.99
29433;BME280;16405;53.964;13.448;2022-11-18T10:03:38;100601.88;;;1.98;69.88
29433;BME280;16405;53.964;13.448;2022-11-18T10:06:27;100610.66;;;1.88;69.21
29433;BME280;16405;53.964;13.448;2022-11-18T10:09:34;100602.66;;;2.06;69.66
29433;BME280;16405;53.964;13.448;2022-11-18T10:12:35;100595.97;;;1.87;68.78
29433;BME280;16405;53.964;13.448;2022-11-18T10:21:27;100617.34;;;2.07;68.92
29433;BME280;16405;53.964;13.448;2022-11-18T10:24:16;100610.44;;;2.08;68.56
29433;BME280;16405;53.964;13.448;2022-11-18T10:26:43;100620.69;;;2.17;68.54
29433;BME280;16405;53.964;13.448;2022-11-18T10:29:09;100620.91;;;2.01;68.64
29433;BME280;16405;53.964;13.448;2022-11-18T10:32:07;100625.81;;;2.21;69.14
29433;BME280;16405;53.964;13.448;2022-11-18T10:34:52;100619.72;;;2.22;69.01
29433;BME280;16405;53.964;13.448;2022-11-18T10:37:33;100626.59;;;2.26;68.73
29433;BME280;16405;53.964;13.448;2022-11-18T10:40:04;100625.19;;;2.05;68.18
29433;BME280;16405;53.964;13.448;2022-11-18T10:42:45;100620.91;;;2.00;68.19
29433;BME280;16405;53.964;13.448;2022-11-18T10:50:42;100625.19;;;2.05;66.25
29433;BME280;16405;53.964;13.448;2022-11-18T10:53:34;100623.34;;;2.12;66.28
29433;BME280;16405;53.964;13.448;2022-11-18T10:56:07;100626.88;;;2.07;65.89
29433;BME280;16405;53.964;13.448;2022-11-18T10:58:48;100627.72;;;2.07;65.83
29433;BME280;16405;53.964;13.448;2022-11-18T11:01:26;100628.66;;;2.03;65.28
29433;BME280;16405;53.964;13.448;2022-11-18T11:04:17;100637.13;;;2.16;65.79
29433;BME280;16405;53.964;13.448;2022-11-18T11:06:49;100651.78;;;2.21;65.81
29433;BME280;16405;53.964;13.448;2022-11-18T11:09:27;100650.03;;;2.23;66.23
29433;BME280;16405;53.964;13.448;2022-11-18T11:11:59;100651.78;;;2.23;66.41
29433;BME280;16405;53.964;13.448;2022-11-18T11:14:50;100653.41;;;2.29;65.69
29433;BME280;16405;53.964;13.448;2022-11-18T11:17:33;100659.53;;;2.26;65.57
29433;BME280;16405;53.964;13.448;2022-11-18T11:20:04;100662.97;;;2.26;65.66
29433;BME280;16405;53.964;13.448;2022-11-18T11:22:34;100656.16;;;2.19;65.85
29433;BME280;16405;53.964;13.448;2022-11-18T11:24:59;100665.63;;;2.23;65.90
29433;BME280;16405;53.964;13.448;2022-11-18T11:27:53;100661.13;;;2.38;66.19
29433;BME280;16405;53.964;13.448;2022-11-18T11:30:24;100660.06;;;2.48;66.01
29433;BME280;16405;53.964;13.448;2022-11-18T11:33:17;100660.06;;;2.48;66.05
29433;BME280;16405;53.964;13.448;2022-11-18T11:42:19;100657.41;;;2.53;66.67
29433;BME280;16405;53.964;13.448;2022-11-18T11:50:59;100647.81;;;2.59;67.34
29433;BME280;16405;53.964;13.448;2022-11-18T11:53:40;100648.59;;;2.64;66.95
29433;BME280;16405;53.964;13.448;2022-11-18T11:59:15;100653.59;;;2.77;66.98
29433;BME280;16405;53.964;13.448;2022-11-18T12:06:51;100641.41;;;2.80;66.60
29433;BME280;16405;53.964;13.448;2022-11-18T12:12:17;100640.34;;;2.92;66.02
29433;BME280;16405;53.964;13.448;2022-11-18T12:18:37;100634.53;;;2.76;65.74
29433;BME280;16405;53.964;13.448;2022-11-18T12:21:06;100657.81;;;2.85;65.93
29433;BME280;16405;53.964;13.448;2022-11-18T12:23:32;100650.84;;;2.86;65.50
29433;BME280;16405;53.964;13.448;2022-11-18T12:28:41;100657.75;;;2.87;65.18
29433;BME280;16405;53.964;13.448;2022-11-18T12:33:52;100667.28;;;2.90;64.91
29433;BME280;16405;53.964;13.448;2022-11-18T12:36:38;100670.53;;;3.02;64.87
29433;BME280;16405;53.964;13.448;2022-11-18T12:44:41;100681.00;;;2.98;65.08
29433;BME280;16405;53.964;13.448;2022-11-18T12:48:00;100677.50;;;3.00;65.16
29433;BME280;16405;53.964;13.448;2022-11-18T12:50:13;100690.56;;;2.96;65.65
29433;BME280;16405;53.964;13.448;2022-11-18T12:55:29;100681.88;;;2.98;66.27
29433;BME280;16405;53.964;13.448;2022-11-18T12:57:56;100686.38;;;2.87;66.33
29433;BME280;16405;53.964;13.448;2022-11-18T13:02:53;100697.50;;;2.95;66.99
29433;BME280;16405;53.964;13.448;2022-11-18T13:05:25;100690.59;;;2.94;66.66
29433;BME280;16405;53.964;13.448;2022-11-18T13:08:11;100688.16;;;2.83;67.62
29433;BME280;16405;53.964;13.448;2022-11-18T13:10:53;100685.50;;;2.88;67.76
29433;BME280;16405;53.964;13.448;2022-11-18T13:13:39;100684.59;;;2.91;68.06
29433;BME280;16405;53.964;13.448;2022-11-18T13:19:03;100691.38;;;2.99;68.43
29433;BME280;16405;53.964;13.448;2022-11-18T13:21:29;100691.34;;;3.02;68.75
29433;BME280;16405;53.964;13.448;2022-11-18T13:24:20;100695.66;;;3.02;68.58
29433;BME280;16405;53.964;13.448;2022-11-18T13:26:52;100696.50;;;3.05;69.19
29433;BME280;16405;53.964;13.448;2022-11-18T13:32:23;100701.78;;;2.99;70.12
29433;BME280;16405;53.964;13.448;2022-11-18T13:34:54;100694.38;;;2.75;70.69
29433;BME280;16405;53.964;13.448;2022-11-18T13:37:28;100698.53;;;2.85;70.80
29433;BME280;16405;53.964;13.448;2022-11-18T13:39:55;100706.25;;;2.91;70.60
29433;BME280;16405;53.964;13.448;2022-11-18T13:42:26;100703.72;;;2.85;70.78
29433;BME280;16405;53.964;13.448;2022-11-18T13:44:54;100714.78;;;2.99;70.59
29433;BME280;16405;53.964;13.448;2022-11-18T13:52:30;100716.13;;;3.25;69.65
29433;BME280;16405;53.964;13.448;2022-11-18T13:54:59;100715.03;;;3.38;68.84
29433;BME280;16405;53.964;13.448;2022-11-18T13:57:26;100710.81;;;3.33;68.51
29433;BME280;16405;53.964;13.448;2022-11-18T13:59:53;100718.28;;;3.51;68.69
29433;BME280;16405;53.964;13.448;2022-11-18T14:02:20;100717.91;;;3.71;68.41
29433;BME280;16405;53.964;13.448;2022-11-18T14:04:57;100709.34;;;3.64;68.44
29433;BME280;16405;53.964;13.448;2022-11-18T14:07:32;100721.44;;;3.68;68.50
29433;BME280;16405;53.964;13.448;2022-11-18T14:10:03;100715.78;;;3.43;68.93
29433;BME280;16405;53.964;13.448;2022-11-18T14:12:32;100721.13;;;3.37;69.42
29433;BME280;16405;53.964;13.448;2022-11-18T14:17:58;100707.91;;;2.97;70.80
29433;BME280;16405;53.964;13.448;2022-11-18T14:20:29;100718.41;;;2.89;71.00
29433;BME280;16405;53.964;13.448;2022-11-18T14:23:00;100713.28;;;2.84;71.05
29433;BME280;16405;53.964;13.448;2022-11-18T14:25:35;100715.25;;;2.69;71.49
29433;BME280;16405;53.964;13.448;2022-11-18T14:28:18;100717.63;;;2.84;71.88
29433;BME280;16405;53.964;13.448;2022-11-18T14:31:26;100714.03;;;2.93;71.12
29433;BME280;16405;53.964;13.448;2022-11-18T14:34:25;100727.97;;;2.88;71.58
29433;BME280;16405;53.964;13.448;2022-11-18T14:36:52;100724.41;;;2.94;71.41
29433;BME280;16405;53.964;13.448;2022-11-18T14:39:25;100729.78;;;2.82;71.61
29433;BME280;16405;53.964;13.448;2022-11-18T14:41:51;100725.59;;;2.73;72.26
29433;BME280;16405;53.964;13.448;2022-11-18T14:44:20;100726.66;;;2.57;72.62
29433;BME280;16405;53.964;13.448;2022-11-18T14:46:51;100732.81;;;2.51;72.98
29433;BME280;16405;53.964;13.448;2022-11-18T14:49:21;100733.75;;;2.47;74.05
29433;BME280;16405;53.964;13.448;2022-11-18T14:51:48;100740.84;;;2.34;74.29
29433;BME280;16405;53.964;13.448;2022-11-18T14:54:16;100735.00;;;2.15;74.99
29433;BME280;16405;53.964;13.448;2022-11-18T14:56:43;100744.72;;;2.01;75.90